createdAt,value
2023-03-13T00:00:51.220Z,1.27
2023-03-13T00:02:55.108Z,1.85
2023-03-13T00:04:58.941Z,1.60
2023-03-13T00:07:03.112Z,1.63
2023-03-13T00:09:10.044Z,1.75
2023-03-13T00:11:15.147Z,1.00
2023-03-13T00:13:19.431Z,1.27
2023-03-13T00:15:23.258Z,1.02
2023-03-13T00:17:27.059Z,1.65
2023-03-13T00:19:30.874Z,1.23
2023-03-13T00:21:34.719Z,1.05
2023-03-13T00:23:39.449Z,1.27
2023-03-13T00:25:44.630Z,1.10
2023-03-13T00:27:49.308Z,2.15
2023-03-13T00:29:53.213Z,1.13
2023-03-13T00:31:57.273Z,1.40
2023-03-13T00:34:02.241Z,1.02
2023-03-13T00:36:08.133Z,1.20
2023-03-13T00:38:12.344Z,1.35
2023-03-13T00:40:16.711Z,1.55
2023-03-13T00:42:23.188Z,0.90
2023-03-13T00:44:27.020Z,1.00
2023-03-13T00:46:31.549Z,1.30
2023-03-13T00:48:35.500Z,1.17
2023-03-13T00:50:39.325Z,1.35
2023-03-13T00:52:43.188Z,1.20
2023-03-13T00:54:46.992Z,1.30
2023-03-13T00:56:50.861Z,1.55
2023-03-13T00:58:56.084Z,1.02
2023-03-13T01:01:09.221Z,1.33
2023-03-13T01:03:13.202Z,1.15
2023-03-13T01:05:17.327Z,1.30
2023-03-13T01:07:21.149Z,1.45
2023-03-13T01:09:25.008Z,1.25
2023-03-13T01:11:29.856Z,1.15
2023-03-13T01:13:33.839Z,1.30
2023-03-13T01:15:39.373Z,1.15
2023-03-13T01:17:45.072Z,1.48
2023-03-13T01:19:49.893Z,1.30
2023-03-13T01:21:53.735Z,1.33
2023-03-13T01:23:57.744Z,1.13
2023-03-13T01:26:01.756Z,1.48
2023-03-13T01:28:06.021Z,0.82
2023-03-13T01:30:12.072Z,0.90
2023-03-13T01:32:17.283Z,0.80
2023-03-13T01:34:21.227Z,0.82
2023-03-13T01:36:25.663Z,0.70
2023-03-13T01:38:29.743Z,1.20
2023-03-13T01:40:39.638Z,0.75
2023-03-13T01:42:54.107Z,0.83
2023-03-13T01:44:58.671Z,0.98
2023-03-13T01:47:03.149Z,1.27
2023-03-13T01:49:33.231Z,1.48
2023-03-13T01:52:01.260Z,1.30
2023-03-13T01:54:08.401Z,0.82
2023-03-13T01:56:18.288Z,1.23
2023-03-13T01:58:22.200Z,1.13
2023-03-13T02:00:28.037Z,1.20
2023-03-13T02:02:31.914Z,0.70
2023-03-13T02:04:39.256Z,0.80
2023-03-13T02:06:44.784Z,1.73
2023-03-13T02:08:51.973Z,1.08
2023-03-13T02:10:59.448Z,1.10
2023-03-13T02:13:03.260Z,1.20
2023-03-13T02:15:09.430Z,1.10
2023-03-13T02:17:13.556Z,1.40
2023-03-13T02:19:19.839Z,0.98
2023-03-13T02:21:39.261Z,1.10
2023-03-13T02:23:51.248Z,0.98
2023-03-13T02:25:56.595Z,0.88
2023-03-13T02:28:10.202Z,0.85
2023-03-13T02:30:16.157Z,0.60
2023-03-13T02:32:20.123Z,1.13
2023-03-13T02:34:27.407Z,1.52
2023-03-13T02:36:31.680Z,1.50
2023-03-13T02:38:40.291Z,1.33
2023-03-13T02:40:46.266Z,1.00
2023-03-13T02:42:51.611Z,0.80
2023-03-13T02:44:55.905Z,1.00
2023-03-13T02:46:59.790Z,1.45
2023-03-13T02:49:21.438Z,1.15
2023-03-13T02:51:29.360Z,1.00
2023-03-13T02:53:33.784Z,0.82
2023-03-13T02:55:40.706Z,1.13
2023-03-13T02:57:46.096Z,0.73
2023-03-13T02:59:51.380Z,1.00
2023-03-13T03:01:55.222Z,0.88
2023-03-13T03:03:59.534Z,1.38
2023-03-13T03:06:03.529Z,0.90
2023-03-13T03:08:07.834Z,1.50
2023-03-13T03:10:12.983Z,0.95
2023-03-13T03:12:18.221Z,1.23
2023-03-13T03:14:22.203Z,0.60
2023-03-13T03:16:27.398Z,0.77
2023-03-13T03:18:33.093Z,1.63
2023-03-13T03:20:39.176Z,0.90
2023-03-13T03:22:43.022Z,0.80
2023-03-13T03:24:46.851Z,0.88
2023-03-13T03:26:50.725Z,1.13
2023-03-13T03:29:01.256Z,1.15
2023-03-13T03:31:05.932Z,0.80
2023-03-13T03:33:11.141Z,0.82
2023-03-13T03:35:15.493Z,1.17
2023-03-13T03:37:19.340Z,0.60
2023-03-13T03:39:23.255Z,0.80
2023-03-13T03:41:27.429Z,0.68
2023-03-13T03:43:32.225Z,1.40
2023-03-13T03:45:36.137Z,1.05
2023-03-13T03:47:40.039Z,0.93
2023-03-13T03:49:45.412Z,1.00
2023-03-13T03:51:50.809Z,0.73
2023-03-13T03:53:59.956Z,1.02
2023-03-13T03:56:07.080Z,1.10
2023-03-13T03:58:12.932Z,0.85
2023-03-13T04:00:32.611Z,0.95
2023-03-13T04:02:37.204Z,0.77
2023-03-13T04:04:41.726Z,0.85
2023-03-13T04:07:03.835Z,0.70
2023-03-13T04:09:08.979Z,0.70
2023-03-13T04:11:14.578Z,1.48
2023-03-13T04:13:23.793Z,0.75
2023-03-13T04:15:28.136Z,0.50
2023-03-13T04:17:32.139Z,0.70
2023-03-13T04:19:36.265Z,0.82
2023-03-13T04:21:40.424Z,0.93
2023-03-13T04:23:49.084Z,0.90
2023-03-13T04:25:53.362Z,0.68
2023-03-13T04:27:57.196Z,1.40
2023-03-13T04:30:07.035Z,0.77
2023-03-13T04:32:40.086Z,0.85
2023-03-13T04:35:22.277Z,0.88
2023-03-13T04:37:51.056Z,0.82
2023-03-13T04:40:31.788Z,1.30
2023-03-13T04:42:38.552Z,0.90
2023-03-13T04:45:02.666Z,0.80
2023-03-13T04:47:21.929Z,0.57
2023-03-13T04:49:40.460Z,0.90
2023-03-13T04:52:04.732Z,0.60
2023-03-13T04:54:26.993Z,0.75
2023-03-13T04:56:44.016Z,0.60
2023-03-13T04:59:06.581Z,0.65
2023-03-13T05:01:28.892Z,0.45
2023-03-13T05:03:38.392Z,0.68
2023-03-13T05:06:00.818Z,1.10
2023-03-13T05:08:27.657Z,1.02
2023-03-13T05:10:49.889Z,0.88
2023-03-13T05:13:13.841Z,0.70
2023-03-13T05:15:31.182Z,1.20
2023-03-13T05:17:57.623Z,0.70
2023-03-13T05:20:24.496Z,0.60
2023-03-13T05:22:46.868Z,0.52
2023-03-13T05:25:16.780Z,0.82
2023-03-13T05:27:29.741Z,0.73
2023-03-13T05:29:58.165Z,0.73
2023-03-13T05:32:17.899Z,0.73
2023-03-13T05:34:32.764Z,1.05
2023-03-13T05:36:48.017Z,1.02
2023-03-13T05:39:27.053Z,0.60
2023-03-13T05:41:49.265Z,0.80
2023-03-13T05:43:53.090Z,0.65
2023-03-13T05:46:17.014Z,0.75
2023-03-13T05:48:46.942Z,0.77
2023-03-13T05:51:14.031Z,0.68
2023-03-13T05:53:31.306Z,0.80
2023-03-13T05:55:45.133Z,0.90
2023-03-13T05:58:17.752Z,0.70
2023-03-13T06:00:51.152Z,0.60
2023-03-13T06:03:23.046Z,0.90
2023-03-13T06:05:29.334Z,1.02
2023-03-13T06:07:33.326Z,0.63
2023-03-13T06:09:37.215Z,0.77
2023-03-13T06:11:41.582Z,0.95
2023-03-13T06:13:45.468Z,0.73
2023-03-13T06:16:01.857Z,0.85
2023-03-13T06:18:22.968Z,0.80
2023-03-13T06:20:26.891Z,0.65
2023-03-13T06:22:30.856Z,0.73
2023-03-13T06:24:34.929Z,0.50
2023-03-13T06:26:38.749Z,0.50
2023-03-13T06:28:42.578Z,0.60
2023-03-13T06:30:46.455Z,0.50
2023-03-13T06:32:50.993Z,0.70
2023-03-13T06:34:56.253Z,0.70
2023-03-13T06:37:00.498Z,0.47
2023-03-13T06:39:04.547Z,1.00
2023-03-13T06:41:08.341Z,0.40
2023-03-13T06:43:12.152Z,0.85
2023-03-13T06:45:16.180Z,0.50
2023-03-13T06:47:20.091Z,0.77
2023-03-13T06:49:23.956Z,1.15
2023-03-13T06:51:29.288Z,0.60
2023-03-13T06:53:33.099Z,2.78
2023-03-13T06:55:36.937Z,0.85
2023-03-13T06:57:40.747Z,0.88
2023-03-13T06:59:44.604Z,0.65
2023-03-13T07:01:48.398Z,0.45
2023-03-13T07:03:52.220Z,0.57
2023-03-13T07:05:59.316Z,0.75
2023-03-13T07:08:04.512Z,0.80
2023-03-13T07:10:10.456Z,0.75
2023-03-13T07:12:14.276Z,0.70
2023-03-13T07:14:18.175Z,0.70
2023-03-13T07:16:22.015Z,0.55
2023-03-13T07:18:25.913Z,0.60
2023-03-13T07:20:29.952Z,0.70
2023-03-13T07:22:33.859Z,0.50
2023-03-13T07:24:39.105Z,0.77
2023-03-13T07:26:57.723Z,0.32
2023-03-13T07:29:07.146Z,0.70
2023-03-13T07:31:13.197Z,0.52
2023-03-13T07:33:17.319Z,0.90
2023-03-13T07:35:21.226Z,0.80
2023-03-13T07:37:25.058Z,0.57
2023-03-13T07:39:28.901Z,0.40
2023-03-13T07:41:34.102Z,0.50
2023-03-13T07:43:37.932Z,0.68
2023-03-13T07:45:50.770Z,0.70
2023-03-13T07:47:54.609Z,0.50
2023-03-13T07:49:58.466Z,0.45
2023-03-13T07:52:02.349Z,0.63
2023-03-13T07:54:06.541Z,0.60
2023-03-13T07:56:12.072Z,0.60
2023-03-13T07:58:17.284Z,1.27
2023-03-13T08:00:22.860Z,0.52
2023-03-13T08:02:26.697Z,0.60
2023-03-13T08:04:30.546Z,0.90
2023-03-13T08:06:36.515Z,0.30
2023-03-13T08:08:41.366Z,0.60
2023-03-13T08:10:45.243Z,0.80
2023-03-13T08:12:49.088Z,0.77
2023-03-13T08:14:54.253Z,0.40
2023-03-13T08:16:58.101Z,0.50
2023-03-13T08:19:04.440Z,0.63
2023-03-13T08:21:09.303Z,0.70
2023-03-13T08:23:13.126Z,0.47
2023-03-13T08:25:17.367Z,1.17
2023-03-13T08:27:21.207Z,0.52
2023-03-13T08:29:25.051Z,0.70
2023-03-13T08:31:31.705Z,0.47
2023-03-13T08:33:35.760Z,0.43
2023-03-13T08:35:39.689Z,0.63
2023-03-13T08:37:43.529Z,1.00
2023-03-13T08:39:48.512Z,0.90
2023-03-13T08:41:52.309Z,0.60
2023-03-13T08:43:56.444Z,0.82
2023-03-13T08:46:00.366Z,0.60
2023-03-13T08:48:06.394Z,0.90
2023-03-13T08:50:13.353Z,0.88
2023-03-13T08:52:17.322Z,1.02
2023-03-13T08:54:21.153Z,0.60
2023-03-13T08:56:26.282Z,0.60
2023-03-13T08:58:30.149Z,0.82
2023-03-13T09:00:34.130Z,0.65
2023-03-13T09:02:37.989Z,0.98
2023-03-13T09:04:43.200Z,0.60
2023-03-13T09:06:47.017Z,0.82
2023-03-13T09:08:50.847Z,0.70
2023-03-13T09:10:57.057Z,0.90
2023-03-13T09:13:00.892Z,1.00
2023-03-13T09:15:05.449Z,0.63
2023-03-13T09:17:09.661Z,0.68
2023-03-13T09:19:13.928Z,0.90
2023-03-13T09:21:20.228Z,1.52
2023-03-13T09:23:24.224Z,1.98
2023-03-13T09:25:28.364Z,1.27
2023-03-13T09:27:32.159Z,0.55
2023-03-13T09:29:39.865Z,1.00
2023-03-13T09:31:43.666Z,0.82
2023-03-13T09:33:48.624Z,0.85
2023-03-13T09:35:52.596Z,0.80
2023-03-13T09:37:57.777Z,1.23
2023-03-13T09:40:01.596Z,0.70
2023-03-13T09:42:10.404Z,0.88
2023-03-13T09:44:17.583Z,0.95
2023-03-13T09:46:25.779Z,1.10
2023-03-13T09:48:32.507Z,1.05
2023-03-13T09:50:37.569Z,0.60
2023-03-13T09:52:41.726Z,0.82
2023-03-13T09:54:50.310Z,1.27
2023-03-13T09:56:57.322Z,1.13
2023-03-13T09:59:04.776Z,1.20
2023-03-13T10:01:10.043Z,0.80
2023-03-13T10:03:17.517Z,0.80
2023-03-13T10:05:23.277Z,0.30
2023-03-13T10:07:27.447Z,0.52
2023-03-13T10:09:33.392Z,0.57
2023-03-13T10:11:41.518Z,0.85
2023-03-13T10:13:48.071Z,0.90
2023-03-13T10:15:53.585Z,0.50
2023-03-13T10:17:57.418Z,0.63
2023-03-13T10:20:09.057Z,0.93
2023-03-13T10:22:15.990Z,0.75
2023-03-13T10:24:24.456Z,0.77
2023-03-13T10:26:30.279Z,0.50
2023-03-13T10:28:35.477Z,0.45
2023-03-13T10:30:39.765Z,0.47
2023-03-13T10:32:43.668Z,0.40
2023-03-13T10:34:52.954Z,0.50
2023-03-13T10:36:59.411Z,0.82
2023-03-13T10:39:23.281Z,0.70
2023-03-13T10:42:39.335Z,0.52
2023-03-13T10:44:45.111Z,0.52
2023-03-13T10:46:50.034Z,0.50
2023-03-13T10:48:55.885Z,0.50
2023-03-13T10:51:01.919Z,0.60
2023-03-13T10:53:21.825Z,0.40
2023-03-13T10:55:26.692Z,0.50
2023-03-13T10:57:31.334Z,0.65
2023-03-13T10:59:35.725Z,0.35
2023-03-13T11:01:44.818Z,0.68
2023-03-13T11:03:49.660Z,0.68
2023-03-13T11:05:57.614Z,0.40
2023-03-13T11:08:12.219Z,0.30
2023-03-13T11:10:20.060Z,0.40
2023-03-13T11:12:23.976Z,0.30
2023-03-13T11:14:27.860Z,0.10
2023-03-13T11:16:31.758Z,0.50
2023-03-13T11:18:40.096Z,2.25
2023-03-13T11:20:44.690Z,1.00
2023-03-13T11:22:54.848Z,2.58
2023-03-13T11:25:22.798Z,1.50
2023-03-13T11:27:30.792Z,2.47
2023-03-13T11:29:41.113Z,2.75
2023-03-13T11:31:49.986Z,1.70
2023-03-13T11:33:58.825Z,1.98
2023-03-13T11:36:04.027Z,2.22
2023-03-13T11:38:10.564Z,2.50
2023-03-13T11:40:20.504Z,2.00
2023-03-13T11:42:45.127Z,2.13
2023-03-13T11:44:53.591Z,2.33
2023-03-13T11:47:06.578Z,2.42
2023-03-13T11:50:05.625Z,2.67
2023-03-13T11:52:20.728Z,1.90
2023-03-13T11:54:51.288Z,2.30
2023-03-13T11:56:57.717Z,2.83
2023-03-13T11:59:23.464Z,1.90
2023-03-13T12:01:28.930Z,2.10
2023-03-13T12:03:38.233Z,1.60
2023-03-13T12:05:46.711Z,1.38
2023-03-13T12:07:54.910Z,2.15
2023-03-13T12:10:00.570Z,1.75
2023-03-13T12:12:06.056Z,2.85
2023-03-13T12:14:13.529Z,2.30
2023-03-13T12:16:20.745Z,1.50
2023-03-13T12:18:27.522Z,1.65
2023-03-13T12:20:39.898Z,1.92
2023-03-13T12:22:49.267Z,1.38
2023-03-13T12:24:56.424Z,1.35
2023-03-13T12:27:02.498Z,2.13
2023-03-13T12:29:14.529Z,1.00
2023-03-13T12:31:23.570Z,1.75
2023-03-13T12:33:29.540Z,1.88
2023-03-13T12:35:34.124Z,1.60
2023-03-13T12:37:42.413Z,1.25
2023-03-13T12:39:51.326Z,1.77
2023-03-13T12:42:07.879Z,1.77
2023-03-13T12:44:14.841Z,1.23
2023-03-13T12:46:39.974Z,1.40
2023-03-13T12:49:20.723Z,1.15
2023-03-13T12:51:39.186Z,1.15
2023-03-13T12:54:12.642Z,1.48
2023-03-13T12:56:32.414Z,1.02
2023-03-13T12:58:45.267Z,1.20
2023-03-13T13:00:49.126Z,1.48
2023-03-13T13:03:05.973Z,1.70
2023-03-13T13:05:19.985Z,1.40
2023-03-13T13:07:26.670Z,1.95
2023-03-13T13:09:31.402Z,1.27
2023-03-13T13:11:50.627Z,2.10
2023-03-13T13:13:54.477Z,1.30
2023-03-13T13:16:02.354Z,1.75
2023-03-13T13:18:17.529Z,1.10
2023-03-13T13:21:07.740Z,0.88
2023-03-13T13:23:33.602Z,3.53
2023-03-13T13:25:37.478Z,0.68
2023-03-13T13:27:49.031Z,1.55
2023-03-13T13:29:57.186Z,0.88
2023-03-13T13:32:02.853Z,1.73
2023-03-13T13:34:08.262Z,1.63
2023-03-13T13:36:31.491Z,0.90
2023-03-13T13:38:40.040Z,1.70
2023-03-13T13:40:55.053Z,1.25
2023-03-13T13:43:00.321Z,1.55
2023-03-13T13:45:04.581Z,1.38
2023-03-13T13:47:24.092Z,1.05
2023-03-13T13:49:33.781Z,1.08
2023-03-13T13:51:37.799Z,1.33
2023-03-13T13:53:44.550Z,1.45
2023-03-13T13:55:48.664Z,1.27
2023-03-13T13:57:52.648Z,0.90
2023-03-13T14:00:01.706Z,1.05
2023-03-13T14:02:22.875Z,1.13
2023-03-13T14:04:29.610Z,1.00
2023-03-13T14:06:35.562Z,0.93
2023-03-13T14:08:39.914Z,1.92
2023-03-13T14:10:45.492Z,0.90
2023-03-13T14:12:52.790Z,1.25
2023-03-13T14:15:17.508Z,1.08
2023-03-13T14:17:21.314Z,1.00
2023-03-13T14:19:30.022Z,1.70
2023-03-13T14:21:34.566Z,1.73
2023-03-13T14:23:42.482Z,1.35
2023-03-13T14:25:48.038Z,0.88
2023-03-13T14:27:52.431Z,0.88
2023-03-13T14:30:03.054Z,1.60
2023-03-13T14:32:09.428Z,0.80
2023-03-13T14:34:13.871Z,0.90
2023-03-13T14:36:17.701Z,0.98
2023-03-13T14:38:22.883Z,0.95
2023-03-13T14:40:28.329Z,1.17
2023-03-13T14:42:32.112Z,1.10
2023-03-13T14:44:36.140Z,0.70
2023-03-13T14:46:41.355Z,1.08
2023-03-13T14:48:46.547Z,1.70
2023-03-13T14:50:50.874Z,0.95
2023-03-13T14:52:56.627Z,0.70
2023-03-13T14:55:02.157Z,0.90
2023-03-13T14:57:14.901Z,0.70
2023-03-13T14:59:19.814Z,0.95
2023-03-13T15:01:27.301Z,0.75
2023-03-13T15:03:32.914Z,1.45
2023-03-13T15:05:38.207Z,1.13
2023-03-13T15:07:43.500Z,1.13
2023-03-13T15:09:47.691Z,1.10
2023-03-13T15:11:59.199Z,1.20
2023-03-13T15:14:03.121Z,0.63
2023-03-13T15:16:14.783Z,0.80
2023-03-13T15:18:20.387Z,0.50
2023-03-13T15:20:24.231Z,0.70
2023-03-13T15:22:31.700Z,0.52
2023-03-13T15:24:35.564Z,0.60
2023-03-13T15:26:39.374Z,0.70
2023-03-13T15:28:43.182Z,1.25
2023-03-13T15:30:47.865Z,0.85
2023-03-13T15:32:52.000Z,0.70
2023-03-13T15:34:58.284Z,0.82
2023-03-13T15:37:02.130Z,0.85
2023-03-13T15:39:07.866Z,0.95
2023-03-13T15:41:11.821Z,0.75
2023-03-13T15:43:15.673Z,0.70
2023-03-13T15:45:19.572Z,1.75
2023-03-13T15:47:23.438Z,1.33
2023-03-13T15:49:27.683Z,1.55
2023-03-13T15:51:32.916Z,0.95
2023-03-13T15:53:36.896Z,0.77
2023-03-13T15:55:42.117Z,0.93
2023-03-13T15:57:47.899Z,0.82
2023-03-13T15:59:51.859Z,1.20
2023-03-13T16:01:55.672Z,1.13
2023-03-13T16:04:00.506Z,0.88
2023-03-13T16:06:12.261Z,0.85
2023-03-13T16:08:29.182Z,1.90
2023-03-13T16:10:38.023Z,1.48
2023-03-13T16:12:43.182Z,0.82
2023-03-13T16:14:47.026Z,0.50
2023-03-13T16:16:52.694Z,0.90
2023-03-13T16:18:57.747Z,0.77
2023-03-13T16:21:01.597Z,0.55
2023-03-13T16:23:05.445Z,1.05
2023-03-13T16:25:10.074Z,0.82
2023-03-13T16:27:17.933Z,1.00
2023-03-13T16:29:23.092Z,1.08
2023-03-13T16:31:28.560Z,0.75
2023-03-13T16:33:32.422Z,0.40
2023-03-13T16:35:36.629Z,0.65
2023-03-13T16:37:40.585Z,0.93
2023-03-13T16:39:45.050Z,0.70
2023-03-13T16:41:49.190Z,0.55
2023-03-13T16:43:53.020Z,1.38
2023-03-13T16:45:58.205Z,1.58
2023-03-13T16:48:02.079Z,0.85
2023-03-13T16:50:22.340Z,0.98
2023-03-13T16:52:26.201Z,1.00
2023-03-13T16:54:30.005Z,0.60
2023-03-13T16:56:34.998Z,0.73
2023-03-13T16:58:38.814Z,1.65
2023-03-13T17:00:45.470Z,0.68
2023-03-13T17:02:54.108Z,0.70
2023-03-13T17:04:58.005Z,0.73
2023-03-13T17:07:01.795Z,1.02
2023-03-13T17:09:07.201Z,0.60
2023-03-13T17:11:15.984Z,0.63
2023-03-13T17:13:23.853Z,0.85
2023-03-13T17:15:27.819Z,0.80
2023-03-13T17:17:31.623Z,0.38
2023-03-13T17:19:36.802Z,0.60
2023-03-13T17:21:40.710Z,0.60
2023-03-13T17:23:44.863Z,0.50
2023-03-13T17:25:48.788Z,0.50
2023-03-13T17:27:52.814Z,0.60
2023-03-13T17:29:56.645Z,0.70
2023-03-13T17:32:03.774Z,0.40
2023-03-13T17:34:08.336Z,0.52
2023-03-13T17:36:18.973Z,0.68
2023-03-13T17:38:22.775Z,0.93
2023-03-13T17:40:28.324Z,0.80
2023-03-13T17:42:32.652Z,0.50
2023-03-13T17:44:38.138Z,0.70
2023-03-13T17:46:43.259Z,0.70
2023-03-13T17:48:47.570Z,0.40
2023-03-13T17:50:51.354Z,0.40
2023-03-13T17:52:56.727Z,0.80
2023-03-13T17:55:00.580Z,0.60
2023-03-13T17:57:06.395Z,0.90
2023-03-13T17:59:13.918Z,0.82
2023-03-13T18:01:19.322Z,0.50
2023-03-13T18:03:23.420Z,0.50
2023-03-13T18:05:27.404Z,1.40
2023-03-13T18:07:31.276Z,0.57
2023-03-13T18:09:36.825Z,0.47
2023-03-13T18:11:40.789Z,0.52
2023-03-13T18:13:45.139Z,1.00
2023-03-13T18:15:50.341Z,0.70
2023-03-13T18:17:54.605Z,0.60
2023-03-13T18:19:58.456Z,0.40
2023-03-13T18:22:02.329Z,0.60
2023-03-13T18:24:07.257Z,0.45
2023-03-13T18:26:28.087Z,0.50
2023-03-13T18:30:35.819Z,0.70
2023-03-13T18:32:39.667Z,0.65
2023-03-13T18:34:43.891Z,0.52
2023-03-13T18:36:47.749Z,0.57
2023-03-13T18:38:51.638Z,0.73
2023-03-13T18:40:55.490Z,0.30
2023-03-13T18:43:00.992Z,0.85
2023-03-13T18:45:06.395Z,0.40
2023-03-13T18:47:14.015Z,0.50
2023-03-13T18:49:20.711Z,0.70
2023-03-13T18:51:25.772Z,0.60
2023-03-13T18:53:29.629Z,0.68
2023-03-13T18:55:33.523Z,0.82
2023-03-13T18:57:37.324Z,0.50
2023-03-13T18:59:42.553Z,0.85
2023-03-13T19:01:48.189Z,0.90
2023-03-13T19:03:52.623Z,0.47
2023-03-13T19:05:56.666Z,0.50
2023-03-13T19:08:00.555Z,0.50
2023-03-13T19:10:04.579Z,0.40
2023-03-13T19:12:08.514Z,0.88
2023-03-13T19:14:12.601Z,0.55
2023-03-13T19:16:19.828Z,0.65
2023-03-13T19:18:23.686Z,0.68
2023-03-13T19:20:27.751Z,0.60
2023-03-13T19:22:31.622Z,0.60
2023-03-13T19:24:35.457Z,0.30
2023-03-13T19:26:41.056Z,0.40
2023-03-13T19:28:45.056Z,1.08
2023-03-13T19:30:48.940Z,0.70
2023-03-13T19:32:54.349Z,1.10
2023-03-13T19:34:58.329Z,1.02
2023-03-13T19:37:02.214Z,0.95
2023-03-13T19:39:06.504Z,0.47
2023-03-13T19:41:10.682Z,0.60
2023-03-13T19:43:14.756Z,0.60
2023-03-13T19:45:20.325Z,0.50
2023-03-13T19:47:24.226Z,0.40
2023-03-13T19:49:29.509Z,0.30
2023-03-13T19:51:33.358Z,0.50
2023-03-13T19:53:37.585Z,0.43
2023-03-13T19:55:41.485Z,0.57
2023-03-13T19:57:45.305Z,0.77
2023-03-13T19:59:49.151Z,0.63
2023-03-13T20:01:55.588Z,0.40
2023-03-13T20:03:59.528Z,0.50
2023-03-13T20:06:05.204Z,0.60
2023-03-13T20:08:09.058Z,0.43
2023-03-13T20:10:12.919Z,0.57
2023-03-13T20:12:16.762Z,0.40
2023-03-13T20:14:21.100Z,0.30
2023-03-13T20:16:27.754Z,0.80
2023-03-13T20:18:31.707Z,0.25
2023-03-13T20:20:36.029Z,0.40
2023-03-13T20:22:41.190Z,0.52
2023-03-13T20:24:44.996Z,0.38
2023-03-13T20:26:48.808Z,0.55
2023-03-13T20:28:53.044Z,0.50
2023-03-13T20:30:56.959Z,0.77
2023-03-13T20:33:01.044Z,0.30
2023-03-13T20:35:10.271Z,0.50
2023-03-13T20:37:14.158Z,1.02
2023-03-13T20:39:19.408Z,0.60
2023-03-13T20:41:25.576Z,0.50
2023-03-13T20:43:29.640Z,0.50
2023-03-13T20:45:33.491Z,0.22
2023-03-13T20:47:37.490Z,0.35
2023-03-13T20:49:41.466Z,0.68
2023-03-13T20:51:45.337Z,0.40
2023-03-13T20:53:49.317Z,0.35
2023-03-13T20:55:55.208Z,0.60
2023-03-13T20:57:59.345Z,0.73
2023-03-13T21:00:05.434Z,0.32
2023-03-13T21:02:09.841Z,0.40
2023-03-13T21:04:13.833Z,0.55
2023-03-13T21:06:18.912Z,0.60
2023-03-13T21:08:23.276Z,1.10
2023-03-13T21:10:27.254Z,0.40
2023-03-13T21:12:32.421Z,0.43
2023-03-13T21:14:37.167Z,0.30
2023-03-13T21:16:41.227Z,0.40
2023-03-13T21:18:45.157Z,0.47
2023-03-13T21:20:49.005Z,0.43
2023-03-13T21:22:53.219Z,0.20
2023-03-13T21:24:57.372Z,0.40
2023-03-13T21:27:01.257Z,0.50
2023-03-13T21:29:08.730Z,0.50
2023-03-13T21:31:14.143Z,0.40
2023-03-13T21:33:18.042Z,0.57
2023-03-13T21:35:22.109Z,0.57
2023-03-13T21:37:26.008Z,0.47
2023-03-13T21:39:30.290Z,0.50
2023-03-13T21:41:35.163Z,0.57
2023-03-13T21:43:41.494Z,0.40
2023-03-13T21:45:46.830Z,0.30
2023-03-13T21:47:50.936Z,0.40
2023-03-13T21:49:55.096Z,0.40
2023-03-13T21:51:59.029Z,0.40
2023-03-13T21:54:02.983Z,0.80
2023-03-13T21:56:08.599Z,0.20
2023-03-13T21:58:12.479Z,0.55
2023-03-13T22:00:17.457Z,0.20
2023-03-13T22:02:23.932Z,0.38
2023-03-13T22:04:28.352Z,0.50
2023-03-13T22:06:32.425Z,0.30
2023-03-13T22:08:36.289Z,0.40
2023-03-13T22:10:40.364Z,0.22
2023-03-13T22:12:44.301Z,0.60
2023-03-13T22:14:48.131Z,1.10
2023-03-13T22:16:52.009Z,0.80
2023-03-13T22:18:57.372Z,0.50
2023-03-13T22:21:01.439Z,0.40
2023-03-13T22:23:05.485Z,0.45
2023-03-13T22:25:10.380Z,0.50
2023-03-13T22:27:15.337Z,0.45
2023-03-13T22:29:19.318Z,0.85
2023-03-13T22:31:23.675Z,0.20
2023-03-13T22:33:27.855Z,0.20
2023-03-13T22:35:33.265Z,0.30
2023-03-13T22:37:37.369Z,0.20
2023-03-13T22:39:41.570Z,0.47
2023-03-13T22:41:45.569Z,0.28
2023-03-13T22:43:49.770Z,0.30
2023-03-13T22:45:53.735Z,0.38
2023-03-13T22:47:57.876Z,0.50
2023-03-13T22:50:01.842Z,0.80
2023-03-13T22:52:07.208Z,0.40
2023-03-13T22:54:11.189Z,0.32
2023-03-13T22:56:15.070Z,0.65
2023-03-13T22:58:18.981Z,0.68
2023-03-13T23:00:23.051Z,0.77
2023-03-13T23:02:27.171Z,0.30
2023-03-13T23:04:31.050Z,0.60
2023-03-13T23:06:35.071Z,0.73
2023-03-13T23:08:41.824Z,0.20
2023-03-13T23:10:48.345Z,0.30
2023-03-13T23:12:52.233Z,0.20
2023-03-13T23:14:59.410Z,0.77
2023-03-13T23:17:03.312Z,0.30
2023-03-13T23:19:07.686Z,0.52
2023-03-13T23:21:13.189Z,0.35
2023-03-13T23:23:17.273Z,0.43
2023-03-13T23:25:23.024Z,0.47
2023-03-13T23:27:27.139Z,0.30
2023-03-13T23:29:31.150Z,0.60
2023-03-13T23:31:35.410Z,0.20
2023-03-13T23:33:39.642Z,0.28
2023-03-13T23:35:43.908Z,0.30
2023-03-13T23:37:53.180Z,0.52
2023-03-13T23:39:59.139Z,1.75
2023-03-13T23:42:04.618Z,0.20
2023-03-13T23:44:08.805Z,0.20
2023-03-13T23:46:21.557Z,0.45
2023-03-13T23:48:25.419Z,0.35
2023-03-13T23:50:29.627Z,0.90
2023-03-13T23:52:35.157Z,0.22
2023-03-13T23:54:39.000Z,0.30
2023-03-13T23:56:42.964Z,0.30
2023-03-13T23:58:48.215Z,0.35
